createdAt,value
2022-10-21T00:01:08.663Z,18.40
2022-10-21T00:03:38.782Z,18.30
2022-10-21T00:06:07.340Z,18.20
2022-10-21T00:08:35.696Z,18.20
2022-10-21T00:11:06.440Z,18.10
2022-10-21T00:13:36.372Z,17.90
2022-10-21T00:16:07.400Z,17.90
2022-10-21T00:18:38.321Z,17.90
2022-10-21T00:21:08.572Z,17.80
2022-10-21T00:23:36.924Z,17.80
2022-10-21T00:26:05.273Z,17.80
2022-10-21T00:28:33.841Z,17.90
2022-10-21T00:31:01.910Z,18.00
2022-10-21T00:33:30.070Z,18.10
2022-10-21T00:36:03.169Z,18.00
2022-10-21T00:38:32.189Z,18.10
2022-10-21T00:41:00.450Z,18.00
2022-10-21T00:43:29.189Z,17.90
2022-10-21T00:46:01.670Z,18.00
2022-10-21T00:48:34.724Z,17.90
2022-10-21T00:51:07.921Z,17.80
2022-10-21T00:53:39.761Z,17.90
2022-10-21T00:58:47.980Z,18.00
2022-10-21T01:01:19.236Z,18.10
2022-10-21T01:03:49.624Z,18.00
2022-10-21T01:06:20.840Z,17.80
2022-10-21T01:08:48.963Z,17.80
2022-10-21T01:11:19.257Z,17.80
2022-10-21T01:14:10.464Z,17.80
2022-10-21T01:16:48.439Z,17.90
2022-10-21T01:19:34.868Z,17.90
2022-10-21T01:25:18.389Z,17.60
2022-10-21T01:27:55.471Z,17.50
2022-10-21T01:30:38.625Z,17.60
2022-10-21T01:33:39.772Z,17.70
2022-10-21T01:36:24.320Z,17.60
2022-10-21T01:39:07.353Z,17.60
2022-10-21T01:41:39.687Z,17.60
2022-10-21T01:44:16.024Z,17.70
2022-10-21T01:50:31.119Z,17.60
2022-10-21T01:53:02.949Z,17.70
2022-10-21T01:55:37.522Z,17.70
2022-10-21T01:58:09.099Z,17.70
2022-10-21T02:00:38.208Z,17.60
2022-10-21T02:03:09.629Z,17.50
2022-10-21T02:05:39.629Z,17.30
2022-10-21T02:08:07.979Z,17.20
2022-10-21T02:10:38.870Z,17.20
2022-10-21T02:13:11.083Z,17.20
2022-10-21T02:15:41.088Z,17.30
2022-10-21T02:18:21.089Z,17.30
2022-10-21T02:20:54.708Z,17.30
2022-10-21T02:23:30.487Z,17.40
2022-10-21T02:25:58.298Z,17.30
2022-10-21T02:28:26.029Z,17.30
2022-10-21T02:31:01.541Z,17.30
2022-10-21T02:33:39.408Z,17.30
2022-10-21T02:36:16.388Z,17.30
2022-10-21T02:38:49.870Z,17.20
2022-10-21T02:41:22.348Z,17.20
2022-10-21T02:43:54.850Z,17.20
2022-10-21T02:46:22.718Z,17.10
2022-10-21T02:48:50.409Z,17.10
2022-10-21T02:51:19.670Z,17.00
2022-10-21T02:53:47.399Z,17.10
2022-10-21T02:56:15.079Z,17.00
2022-10-21T02:58:43.047Z,16.90
2022-10-21T03:03:43.458Z,16.90
2022-10-21T03:08:40.309Z,16.90
2022-10-21T03:11:07.897Z,17.00
2022-10-21T03:13:35.526Z,17.00
2022-10-21T03:16:03.139Z,17.00
2022-10-21T03:18:30.899Z,17.00
2022-10-21T03:20:58.409Z,16.80
2022-10-21T03:23:26.034Z,16.70
2022-10-21T03:25:54.989Z,16.70
2022-10-21T03:28:22.706Z,16.60
2022-10-21T03:30:50.243Z,16.60
2022-10-21T03:33:17.866Z,16.50
2022-10-21T03:35:45.618Z,16.50
2022-10-21T03:38:13.271Z,16.50
2022-10-21T03:40:40.771Z,16.60
2022-10-21T03:43:09.920Z,16.50
2022-10-21T03:45:37.494Z,16.60
2022-10-21T03:48:05.338Z,16.60
2022-10-21T03:50:32.907Z,16.70
2022-10-21T03:53:02.399Z,16.80
2022-10-21T03:55:37.613Z,16.80
2022-10-21T03:58:05.227Z,16.90
2022-10-21T04:00:34.557Z,16.90
2022-10-21T04:03:02.139Z,16.80
2022-10-21T04:05:29.731Z,16.70
2022-10-21T04:07:57.293Z,16.60
2022-10-21T04:10:25.575Z,16.50
2022-10-21T04:12:53.209Z,16.50
2022-10-21T04:15:21.031Z,16.40
2022-10-21T04:17:50.028Z,16.40
2022-10-21T04:20:17.892Z,16.40
2022-10-21T04:22:45.458Z,16.40
2022-10-21T04:25:13.292Z,16.50
2022-10-21T04:27:40.836Z,16.50
2022-10-21T04:30:09.550Z,16.60
2022-10-21T04:32:37.618Z,16.60
2022-10-21T04:35:07.551Z,16.70
2022-10-21T04:37:35.412Z,16.80
2022-10-21T04:40:03.141Z,16.80
2022-10-21T04:42:30.654Z,16.90
2022-10-21T04:44:59.244Z,17.00
2022-10-21T04:47:27.129Z,17.00
2022-10-21T04:49:54.701Z,17.00
2022-10-21T04:52:23.828Z,17.00
2022-10-21T04:54:51.443Z,17.00
2022-10-21T04:57:20.607Z,16.80
2022-10-21T04:59:48.474Z,16.80
2022-10-21T05:02:16.634Z,16.80
2022-10-21T05:04:45.445Z,16.90
2022-10-21T05:07:13.013Z,16.80
2022-10-21T05:09:42.079Z,16.80
2022-10-21T05:12:09.640Z,16.80
2022-10-21T05:14:37.677Z,16.70
2022-10-21T05:17:05.229Z,16.80
2022-10-21T05:19:32.983Z,16.70
2022-10-21T05:22:00.506Z,16.70
2022-10-21T05:24:28.277Z,16.90
2022-10-21T05:26:57.311Z,16.90
2022-10-21T05:29:24.953Z,17.00
2022-10-21T05:31:52.742Z,16.90
2022-10-21T05:34:20.462Z,16.80
2022-10-21T05:36:49.041Z,16.90
2022-10-21T05:39:16.694Z,16.90
2022-10-21T05:41:47.102Z,17.00
2022-10-21T05:44:17.330Z,16.90
2022-10-21T05:46:44.920Z,16.70
2022-10-21T05:49:13.424Z,16.80
2022-10-21T05:51:41.173Z,16.80
2022-10-21T05:54:08.902Z,16.80
2022-10-21T05:56:36.751Z,16.70
2022-10-21T05:59:07.861Z,16.70
2022-10-21T06:01:39.791Z,16.70
2022-10-21T06:04:08.032Z,16.70
2022-10-21T06:06:35.704Z,16.50
2022-10-21T06:09:03.783Z,16.50
2022-10-21T06:11:31.721Z,16.50
2022-10-21T06:14:00.624Z,16.60
2022-10-21T06:16:28.395Z,16.70
2022-10-21T06:18:57.762Z,16.80
2022-10-21T06:21:25.392Z,16.80
2022-10-21T06:23:54.252Z,16.80
2022-10-21T06:26:22.102Z,16.70
2022-10-21T06:28:49.792Z,16.70
2022-10-21T06:31:20.680Z,16.90
2022-10-21T06:33:48.671Z,16.90
2022-10-21T06:36:17.692Z,16.90
2022-10-21T06:38:45.415Z,17.00
2022-10-21T06:41:14.366Z,17.10
2022-10-21T06:43:42.923Z,17.20
2022-10-21T06:46:13.278Z,17.20
2022-10-21T06:48:41.108Z,17.30
2022-10-21T06:51:12.215Z,17.30
2022-10-21T06:53:41.659Z,17.10
2022-10-21T06:56:11.671Z,17.10
2022-10-21T06:58:43.477Z,17.20
2022-10-21T07:01:27.446Z,17.20
2022-10-21T07:04:01.636Z,17.20
2022-10-21T07:06:29.649Z,17.10
2022-10-21T07:08:59.317Z,17.20
2022-10-21T07:11:27.723Z,17.10
2022-10-21T07:13:55.383Z,17.10
2022-10-21T07:16:25.216Z,17.30
2022-10-21T07:18:53.335Z,17.10
2022-10-21T07:21:22.638Z,17.10
2022-10-21T07:23:51.802Z,17.20
2022-10-21T07:26:21.652Z,17.30
2022-10-21T07:28:49.732Z,17.30
2022-10-21T07:33:51.337Z,17.40
2022-10-21T07:36:21.130Z,17.50
2022-10-21T07:38:50.222Z,17.50
2022-10-21T07:41:22.017Z,17.60
2022-10-21T07:43:50.617Z,17.50
2022-10-21T07:46:19.593Z,17.50
2022-10-21T07:48:47.365Z,17.50
2022-10-21T07:51:17.260Z,17.50
2022-10-21T07:53:44.976Z,17.70
2022-10-21T07:56:15.510Z,17.80
2022-10-21T07:58:47.045Z,17.90
2022-10-21T08:01:16.813Z,17.90
2022-10-21T08:03:45.187Z,18.00
2022-10-21T08:06:15.711Z,18.00
2022-10-21T08:08:44.483Z,18.10
2022-10-21T08:11:12.435Z,18.20
2022-10-21T08:13:41.682Z,18.30
2022-10-21T08:16:10.758Z,18.20
2022-10-21T08:18:38.281Z,18.30
2022-10-21T08:21:06.221Z,18.30
2022-10-21T08:23:33.849Z,18.40
2022-10-21T08:26:01.624Z,18.40
2022-10-21T08:28:30.627Z,18.50
2022-10-21T08:31:04.204Z,18.50
2022-10-21T08:33:33.417Z,18.60
2022-10-21T08:36:05.546Z,18.70
2022-10-21T08:38:33.660Z,18.70
2022-10-21T08:41:02.086Z,18.70
2022-10-21T08:43:33.164Z,18.80
2022-10-21T08:46:06.758Z,18.80
2022-10-21T08:48:40.151Z,18.90
2022-10-21T08:51:13.727Z,18.90
2022-10-21T08:53:47.579Z,19.00
2022-10-21T08:56:19.893Z,19.10
2022-10-21T08:58:50.653Z,19.10
2022-10-21T09:01:23.808Z,19.20
2022-10-21T09:03:58.450Z,19.50
2022-10-21T09:06:31.616Z,19.60
2022-10-21T09:09:11.163Z,19.60
2022-10-21T09:11:53.266Z,19.70
2022-10-21T09:14:49.745Z,19.80
2022-10-21T09:17:30.294Z,19.80
2022-10-21T09:20:08.054Z,19.90
2022-10-21T09:22:48.205Z,19.90
2022-10-21T09:25:22.087Z,20.00
2022-10-21T09:27:56.457Z,20.10
2022-10-21T09:30:25.733Z,20.20
2022-10-21T09:32:58.336Z,20.30
2022-10-21T09:35:34.150Z,20.30
2022-10-21T09:38:07.044Z,20.40
2022-10-21T09:40:35.123Z,20.50
2022-10-21T09:43:18.404Z,20.50
2022-10-21T09:45:47.412Z,20.60
2022-10-21T09:48:26.803Z,20.60
2022-10-21T09:51:00.172Z,20.60
2022-10-21T09:53:33.263Z,20.60
2022-10-21T09:56:04.006Z,20.60
2022-10-21T09:58:48.892Z,20.60
2022-10-21T10:01:18.434Z,20.50
2022-10-21T10:03:48.914Z,20.50
2022-10-21T10:06:32.674Z,20.50
2022-10-21T10:09:15.598Z,20.70
2022-10-21T10:11:55.393Z,21.20
2022-10-21T10:14:34.680Z,21.50
2022-10-21T10:17:27.213Z,21.70
2022-10-21T10:20:18.325Z,21.80
2022-10-21T10:23:07.868Z,21.90
2022-10-21T10:25:37.973Z,22.00
2022-10-21T10:28:18.783Z,22.00
2022-10-21T10:30:48.804Z,22.00
2022-10-21T10:33:19.822Z,22.00
2022-10-21T10:35:49.603Z,22.00
2022-10-21T10:38:26.613Z,22.00
2022-10-21T10:40:56.428Z,22.00
2022-10-21T10:43:29.484Z,22.00
2022-10-21T10:45:59.654Z,22.00
2022-10-21T10:48:33.875Z,22.00
2022-10-21T10:51:07.425Z,22.00
2022-10-21T10:53:38.654Z,22.00
2022-10-21T10:56:21.201Z,22.10
2022-10-21T10:58:54.294Z,22.10
2022-10-21T11:01:30.280Z,22.10
2022-10-21T11:04:11.656Z,22.00
2022-10-21T11:06:46.275Z,21.90
2022-10-21T11:09:20.083Z,21.80
2022-10-21T11:11:55.033Z,21.80
2022-10-21T11:14:23.615Z,21.70
2022-10-21T11:17:03.793Z,21.70
2022-10-21T11:19:41.204Z,21.70
2022-10-21T11:22:14.607Z,21.60
2022-10-21T11:25:04.773Z,21.60
2022-10-21T11:28:01.227Z,21.60
2022-10-21T11:30:40.194Z,21.60
2022-10-21T11:33:18.885Z,21.60
2022-10-21T11:35:59.043Z,21.60
2022-10-21T11:38:49.003Z,21.80
2022-10-21T11:41:31.269Z,21.90
2022-10-21T11:44:10.575Z,22.00
2022-10-21T11:46:52.146Z,22.10
2022-10-21T11:49:37.278Z,22.20
2022-10-21T11:52:22.834Z,22.30
2022-10-21T11:55:14.506Z,22.30
2022-10-21T11:57:53.347Z,22.40
2022-10-21T12:00:24.448Z,22.50
2022-10-21T12:03:19.042Z,22.50
2022-10-21T12:05:54.397Z,22.50
2022-10-21T12:08:27.635Z,22.60
2022-10-21T12:10:59.342Z,22.50
2022-10-21T12:13:31.629Z,22.50
2022-10-21T12:16:01.522Z,22.40
2022-10-21T12:18:30.696Z,22.40
2022-10-21T12:21:00.181Z,22.40
2022-10-21T12:23:31.461Z,22.40
2022-10-21T12:26:13.640Z,22.30
2022-10-21T12:28:49.756Z,22.30
2022-10-21T12:31:29.455Z,22.30
2022-10-21T12:33:58.076Z,22.30
2022-10-21T12:36:41.635Z,22.40
2022-10-21T12:39:16.568Z,22.30
2022-10-21T12:41:47.450Z,22.30
2022-10-21T12:44:23.683Z,22.30
2022-10-21T12:46:53.855Z,22.30
2022-10-21T12:49:28.279Z,22.30
2022-10-21T12:52:04.201Z,22.30
2022-10-21T12:54:42.435Z,22.30
2022-10-21T12:57:21.409Z,22.20
2022-10-21T12:59:50.713Z,22.20
2022-10-21T13:02:25.698Z,22.30
2022-10-21T13:04:58.155Z,22.30
2022-10-21T13:07:37.195Z,22.30
2022-10-21T13:10:24.916Z,22.30
2022-10-21T13:13:30.280Z,22.40
2022-10-21T13:16:01.259Z,22.40
2022-10-21T13:18:58.106Z,22.40
2022-10-21T13:21:36.316Z,22.40
2022-10-21T13:24:25.351Z,22.40
2022-10-21T13:26:55.924Z,22.30
2022-10-21T13:29:30.496Z,22.40
2022-10-21T13:32:33.829Z,22.40
2022-10-21T13:35:08.607Z,22.50
2022-10-21T13:37:39.597Z,22.60
2022-10-21T13:40:15.030Z,22.60
2022-10-21T13:42:47.571Z,22.70
2022-10-21T13:45:25.087Z,22.80
2022-10-21T13:48:12.341Z,22.90
2022-10-21T13:50:41.943Z,22.80
2022-10-21T13:53:24.946Z,22.80
2022-10-21T13:55:58.612Z,22.80
2022-10-21T13:58:27.922Z,22.80
2022-10-21T14:00:58.711Z,22.80
2022-10-21T14:03:28.498Z,22.80
2022-10-21T14:05:59.127Z,22.80
2022-10-21T14:08:30.199Z,22.70
2022-10-21T14:11:00.540Z,22.70
2022-10-21T14:13:33.273Z,22.70
2022-10-21T14:16:01.703Z,22.70
2022-10-21T14:18:37.287Z,22.70
2022-10-21T14:21:06.695Z,22.70
2022-10-21T14:23:34.933Z,22.80
2022-10-21T14:26:06.476Z,22.80
2022-10-21T14:28:35.694Z,22.80
2022-10-21T14:33:45.572Z,22.90
2022-10-21T14:36:18.934Z,23.00
2022-10-21T14:38:55.648Z,23.30
2022-10-21T14:41:26.459Z,23.40
2022-10-21T14:43:57.769Z,23.40
2022-10-21T14:46:25.577Z,23.40
2022-10-21T14:50:02.213Z,23.30
2022-10-21T14:52:35.233Z,23.20
2022-10-21T14:55:07.203Z,23.00
2022-10-21T14:57:39.922Z,22.90
2022-10-21T15:00:19.854Z,22.90
2022-10-21T15:02:49.031Z,22.80
2022-10-21T15:05:35.912Z,22.70
2022-10-21T15:08:32.724Z,22.70
2022-10-21T15:11:33.913Z,22.60
2022-10-21T15:14:19.372Z,22.50
2022-10-21T15:16:49.433Z,22.40
2022-10-21T15:19:20.093Z,22.50
2022-10-21T15:21:51.113Z,22.60
2022-10-21T15:24:25.183Z,22.50
2022-10-21T15:26:54.433Z,22.40
2022-10-21T15:29:34.402Z,22.30
2022-10-21T15:32:02.502Z,22.20
2022-10-21T15:34:30.252Z,22.10
2022-10-21T15:36:58.013Z,22.00
2022-10-21T15:39:27.221Z,22.00
2022-10-21T15:41:57.453Z,22.00
2022-10-21T15:44:27.652Z,21.90
2022-10-21T15:47:01.088Z,21.90
2022-10-21T15:49:32.589Z,21.80
2022-10-21T15:52:00.583Z,21.80
2022-10-21T15:54:29.761Z,21.70
2022-10-21T15:56:59.459Z,21.70
2022-10-21T15:59:29.443Z,21.60
2022-10-21T16:01:57.387Z,21.50
2022-10-21T16:04:25.475Z,21.50
2022-10-21T16:06:54.353Z,21.40
2022-10-21T16:09:24.197Z,21.40
2022-10-21T16:11:59.417Z,21.30
2022-10-21T16:14:29.624Z,21.30
2022-10-21T16:16:58.597Z,21.20
2022-10-21T16:19:26.474Z,21.20
2022-10-21T16:21:54.554Z,21.10
2022-10-21T16:24:22.319Z,21.10
2022-10-21T16:26:51.011Z,21.10
2022-10-21T16:29:22.104Z,21.10
2022-10-21T16:31:50.856Z,21.10
2022-10-21T16:34:19.042Z,21.10
2022-10-21T16:37:19.569Z,21.10
2022-10-21T16:39:47.494Z,21.00
2022-10-21T16:42:15.689Z,21.00
2022-10-21T16:44:46.233Z,21.00
2022-10-21T16:47:19.514Z,21.00
2022-10-21T16:49:48.154Z,20.90
2022-10-21T16:52:17.865Z,20.90
2022-10-21T16:54:48.584Z,20.90
2022-10-21T16:57:16.836Z,20.80
2022-10-21T16:59:46.416Z,20.80
2022-10-21T17:02:16.984Z,20.80
2022-10-21T17:04:45.794Z,20.80
2022-10-21T17:07:14.335Z,20.80
2022-10-21T17:09:42.934Z,20.80
2022-10-21T17:12:11.807Z,20.80
2022-10-21T17:14:39.844Z,20.80
2022-10-21T17:17:09.914Z,20.80
2022-10-21T17:19:37.938Z,20.70
2022-10-21T17:22:05.804Z,20.70
2022-10-21T17:24:33.804Z,20.70
2022-10-21T17:27:02.104Z,20.70
2022-10-21T17:29:29.955Z,20.70
2022-10-21T17:31:57.944Z,20.70
2022-10-21T17:34:30.251Z,20.70
2022-10-21T17:36:58.851Z,20.70
2022-10-21T17:39:27.270Z,20.60
2022-10-21T17:41:55.476Z,20.50
2022-10-21T17:44:23.681Z,20.50
2022-10-21T17:46:54.802Z,20.50
2022-10-21T17:49:24.004Z,20.50
2022-10-21T17:51:53.420Z,20.50
2022-10-21T17:54:25.948Z,20.50
2022-10-21T17:56:57.261Z,20.50
2022-10-21T17:59:25.822Z,20.50
2022-10-21T18:01:53.872Z,20.50
2022-10-21T18:04:21.900Z,20.40
2022-10-21T18:06:49.793Z,20.40
2022-10-21T18:09:19.245Z,20.40
2022-10-21T18:11:47.182Z,20.50
2022-10-21T18:14:15.042Z,20.40
2022-10-21T18:16:46.232Z,20.40
2022-10-21T18:19:14.519Z,20.40
2022-10-21T18:21:42.867Z,20.40
2022-10-21T18:24:12.621Z,20.40
2022-10-21T18:26:42.610Z,20.40
2022-10-21T18:29:10.686Z,20.40
2022-10-21T18:31:39.050Z,20.40
2022-10-21T18:34:09.486Z,20.30
2022-10-21T18:36:37.767Z,20.30
2022-10-21T18:39:06.681Z,20.30
2022-10-21T18:41:35.161Z,20.30
2022-10-21T18:44:08.569Z,20.30
2022-10-21T18:46:38.012Z,20.30
2022-10-21T18:49:07.988Z,20.20
2022-10-21T18:51:36.091Z,20.20
2022-10-21T18:54:05.082Z,20.10
2022-10-21T18:56:33.349Z,20.10
2022-10-21T18:59:01.881Z,20.10
2022-10-21T19:01:31.569Z,20.00
2022-10-21T19:03:59.813Z,20.00
2022-10-21T19:06:38.552Z,20.00
2022-10-21T19:09:09.562Z,20.00
2022-10-21T19:11:38.140Z,20.00
2022-10-21T19:14:08.506Z,20.00
2022-10-21T19:16:41.829Z,20.00
2022-10-21T19:19:11.011Z,19.90
2022-10-21T19:21:39.230Z,19.90
2022-10-21T19:24:07.590Z,19.90
2022-10-21T19:26:37.713Z,19.90
2022-10-21T19:29:08.379Z,19.90
2022-10-21T19:31:38.609Z,19.80
2022-10-21T19:34:10.469Z,19.80
2022-10-21T19:36:38.721Z,19.80
2022-10-21T19:39:10.254Z,19.70
2022-10-21T19:41:38.510Z,19.60
2022-10-21T19:44:07.331Z,19.60
2022-10-21T19:46:36.381Z,19.70
2022-10-21T19:49:06.372Z,19.70
2022-10-21T19:51:37.410Z,19.80
2022-10-21T19:54:07.920Z,19.70
2022-10-21T19:56:37.082Z,19.60
2022-10-21T19:59:06.200Z,19.70
2022-10-21T20:01:35.572Z,19.70
2022-10-21T20:04:04.842Z,19.60
2022-10-21T20:06:36.091Z,19.60
2022-10-21T20:09:06.707Z,19.70
2022-10-21T20:11:35.460Z,19.60
2022-10-21T20:14:04.630Z,19.60
2022-10-21T20:16:34.200Z,19.50
2022-10-21T20:19:03.442Z,19.60
2022-10-21T20:21:34.437Z,19.60
2022-10-21T20:24:05.711Z,19.60
2022-10-21T20:26:34.218Z,19.60
2022-10-21T20:29:02.818Z,19.60
2022-10-21T20:31:31.406Z,19.60
2022-10-21T20:33:59.700Z,19.60
2022-10-21T20:36:29.484Z,19.60
2022-10-21T20:38:59.282Z,19.50
2022-10-21T20:41:33.940Z,19.50
2022-10-21T20:44:03.436Z,19.60
2022-10-21T20:46:35.371Z,19.60
2022-10-21T20:49:05.591Z,19.60
2022-10-21T20:51:34.742Z,19.60
2022-10-21T20:54:04.193Z,19.60
2022-10-21T20:56:35.981Z,19.60
2022-10-21T20:59:05.760Z,19.60
2022-10-21T21:01:36.079Z,19.60
2022-10-21T21:04:06.550Z,19.50
2022-10-21T21:06:37.910Z,19.50
2022-10-21T21:11:56.089Z,19.50
2022-10-21T21:14:24.390Z,19.50
2022-10-21T21:16:52.500Z,19.50
2022-10-21T21:19:21.012Z,19.50
2022-10-21T21:21:49.213Z,19.50
2022-10-21T21:24:17.071Z,19.40
2022-10-21T21:26:45.089Z,19.40
2022-10-21T21:29:14.963Z,19.40
2022-10-21T21:31:44.508Z,19.40
2022-10-21T21:34:12.620Z,19.40
2022-10-21T21:36:40.690Z,19.40
2022-10-21T21:39:08.982Z,19.40
2022-10-21T21:41:37.312Z,19.40
2022-10-21T21:44:06.132Z,19.40
2022-10-21T21:46:35.718Z,19.40
2022-10-21T21:49:06.354Z,19.30
2022-10-21T21:51:36.950Z,19.30
2022-10-21T21:54:08.296Z,19.40
2022-10-21T21:56:36.644Z,19.40
2022-10-21T21:59:04.731Z,19.40
2022-10-21T22:01:32.850Z,19.20
2022-10-21T22:04:02.774Z,19.30
2022-10-21T22:06:32.770Z,19.20
2022-10-21T22:09:01.619Z,19.20
2022-10-21T22:11:32.291Z,19.20
2022-10-21T22:14:00.604Z,19.20
2022-10-21T22:16:30.565Z,19.20
2022-10-21T22:19:00.260Z,19.20
2022-10-21T22:21:31.199Z,19.20
2022-10-21T22:23:59.899Z,19.20
2022-10-21T22:26:28.090Z,19.20
2022-10-21T22:28:56.240Z,19.20
2022-10-21T22:31:29.112Z,19.10
2022-10-21T22:34:00.264Z,19.20
2022-10-21T22:36:29.804Z,19.30
2022-10-21T22:38:57.965Z,19.30
2022-10-21T22:41:25.971Z,19.30
2022-10-21T22:43:53.994Z,19.30
2022-10-21T22:46:29.776Z,19.30
2022-10-21T22:49:02.800Z,19.20
2022-10-21T22:51:32.510Z,19.20
2022-10-21T22:54:01.224Z,19.20
2022-10-21T22:56:29.851Z,19.20
2022-10-21T22:58:58.126Z,19.20
2022-10-21T23:01:30.524Z,19.20
2022-10-21T23:04:02.905Z,19.30
2022-10-21T23:06:33.942Z,19.30
2022-10-21T23:09:03.376Z,19.20
2022-10-21T23:11:31.831Z,19.20
2022-10-21T23:14:07.885Z,19.20
2022-10-21T23:16:37.466Z,19.20
2022-10-21T23:19:05.671Z,19.20
2022-10-21T23:21:35.569Z,19.10
2022-10-21T23:24:04.141Z,19.10
2022-10-21T23:26:32.002Z,19.00
2022-10-21T23:29:00.115Z,19.10
2022-10-21T23:31:27.946Z,19.00
2022-10-21T23:33:55.971Z,19.00
2022-10-21T23:38:58.500Z,18.90
2022-10-21T23:41:26.621Z,19.00
2022-10-21T23:43:54.802Z,19.00
2022-10-21T23:46:22.998Z,19.00
2022-10-21T23:48:50.952Z,19.00
2022-10-21T23:51:18.942Z,18.90
2022-10-21T23:53:47.000Z,18.90
2022-10-21T23:56:16.820Z,18.90
2022-10-21T23:58:44.761Z,18.80
